Time;durP1;ratioP1;P1;durP2;ratioP2;P2;SDS_P1;SDS_P2;PMS_P1;PMS_P2;Temp;Humidity;BMP_temperature;BMP_pressure;BME280_temperature;BME280_humidity;BME280_pressure;Samples;Min_cycle;Max_cycle;Signal;HPM_P1;HPM_P2
2022/10/08 00:00:21;;;;;;;17.47;6.07;;;10.50;99.90;;;;;;5264503;28;20235;-50
2022/10/08 00:02:52;;;;;;;20.30;12.13;;;10.40;99.90;;;;;;5261450;28;20561;-49
2022/10/08 00:05:23;;;;;;;16.70;7.00;;;10.40;99.90;;;;;;5262386;28;20188;-50
2022/10/08 00:07:53;;;;;;;10.50;5.97;;;10.50;99.90;;;;;;5266233;28;20432;-49
2022/10/08 00:10:24;;;;;;;7.03;4.77;;;10.50;99.90;;;;;;5270803;28;20206;-47
2022/10/08 00:12:55;;;;;;;12.23;5.23;;;10.40;99.90;;;;;;5244959;28;20255;-49
2022/10/08 00:15:26;;;;;;;6.00;5.30;;;10.40;99.90;;;;;;5249381;28;20169;-48
2022/10/08 00:17:57;;;;;;;7.73;5.10;;;10.50;99.90;;;;;;5268367;28;20598;-49
2022/10/08 00:20:27;;;;;;;9.17;5.00;;;10.50;99.90;;;;;;5264210;28;20425;-47
2022/10/08 00:23:00;;;;;;;8.10;5.50;;;10.40;99.90;;;;;;5259765;28;20218;-49
2022/10/08 00:25:30;;;;;;;5.63;5.10;;;10.40;99.90;;;;;;5249165;28;20185;-49
2022/10/08 00:28:01;;;;;;;6.70;5.00;;;10.30;99.90;;;;;;5261983;28;20435;-49
2022/10/08 00:30:38;;;;;;;11.57;7.90;;;10.30;99.90;;;;;;5249496;28;20300;-48
2022/10/08 00:33:09;;;;;;;7.07;4.80;;;10.30;99.90;;;;;;5271894;28;20542;-48
2022/10/08 00:35:40;;;;;;;9.50;6.60;;;10.20;99.90;;;;;;5247126;28;20490;-48
2022/10/08 00:38:10;;;;;;;9.33;6.70;;;10.20;99.90;;;;;;5265590;28;20201;-48
2022/10/08 00:40:44;;;;;;;9.80;5.80;;;10.20;99.90;;;;;;5240891;28;20174;-49
2022/10/08 00:43:16;;;;;;;6.27;4.90;;;10.20;99.90;;;;;;5261472;28;20224;-49
2022/10/08 00:45:46;;;;;;;11.50;4.50;;;10.20;99.90;;;;;;5262372;28;20794;-50
2022/10/08 00:48:24;;;;;;;6.70;5.33;;;10.20;99.90;;;;;;5264395;28;20435;-50
2022/10/08 00:50:55;;;;;;;13.03;6.70;;;10.20;99.90;;;;;;5269290;28;20189;-50
2022/10/08 00:53:25;;;;;;;22.53;10.90;;;10.10;99.90;;;;;;5263579;28;20456;-48
2022/10/08 00:55:56;;;;;;;8.13;5.80;;;10.10;99.90;;;;;;5264243;28;20215;-50
2022/10/08 00:58:29;;;;;;;12.90;6.20;;;10.20;99.90;;;;;;5259039;28;20588;-50
2022/10/08 01:01:00;;;;;;;8.13;6.17;;;10.20;99.90;;;;;;5268903;28;20223;-49
2022/10/08 01:03:30;;;;;;;9.73;4.80;;;10.20;99.90;;;;;;5255656;28;20554;-48
2022/10/08 01:06:28;;;;;;;7.07;5.90;;;10.20;99.90;;;;;;5266748;28;20447;-49
2022/10/08 01:09:08;;;;;;;9.30;6.00;;;10.20;99.90;;;;;;5243692;28;20948;-49
2022/10/08 01:11:48;;;;;;;10.53;6.70;;;10.10;99.90;;;;;;5247470;28;20434;-49
2022/10/08 01:14:46;;;;;;;8.80;4.87;;;10.10;99.90;;;;;;5236447;28;20571;-50
2022/10/08 01:17:50;;;;;;;10.63;5.97;;;10.10;99.90;;;;;;5261925;28;20511;-48
2022/10/08 01:20:51;;;;;;;6.37;5.77;;;10.20;99.90;;;;;;5261654;28;20459;-49
2022/10/08 01:23:58;;;;;;;14.53;5.70;;;10.10;99.90;;;;;;5227953;28;20459;-49
2022/10/08 01:26:51;;;;;;;6.43;5.60;;;10.20;99.90;;;;;;5262997;28;20558;-49
2022/10/08 01:29:45;;;;;;;14.27;5.87;;;10.20;99.90;;;;;;5254252;28;20471;-50
2022/10/08 01:32:20;;;;;;;7.77;5.40;;;10.30;99.90;;;;;;5242846;28;20594;-49
2022/10/08 01:34:58;;;;;;;24.93;6.57;;;10.20;99.90;;;;;;5269028;28;20958;-49
2022/10/08 01:37:31;;;;;;;10.23;5.83;;;10.20;99.90;;;;;;5262102;28;20538;-49
2022/10/08 01:40:08;;;;;;;12.20;5.87;;;10.30;99.90;;;;;;5261023;28;20440;-50
2022/10/08 01:42:40;;;;;;;10.73;6.63;;;10.30;99.90;;;;;;5260020;28;20467;-49
2022/10/08 01:45:16;;;;;;;7.63;5.80;;;10.40;99.90;;;;;;5254260;28;20447;-48
2022/10/08 01:47:48;;;;;;;6.90;4.80;;;10.40;99.90;;;;;;5244839;28;20439;-51
2022/10/08 01:50:27;;;;;;;7.63;5.20;;;10.40;99.90;;;;;;5246947;28;20458;-49
2022/10/08 01:53:06;;;;;;;9.60;6.27;;;10.50;99.90;;;;;;5245232;28;20455;-49
2022/10/08 01:55:41;;;;;;;10.00;5.63;;;10.50;99.90;;;;;;5244045;28;20880;-48
2022/10/08 01:58:32;;;;;;;7.07;5.80;;;10.50;99.90;;;;;;5260985;28;20933;-47
2022/10/08 02:01:17;;;;;;;10.77;5.10;;;10.40;99.90;;;;;;5262007;28;20945;-47
2022/10/08 02:06:42;;;;;;;8.20;5.07;;;10.40;99.90;;;;;;5261492;28;20439;-47
2022/10/08 02:09:14;;;;;;;11.53;5.27;;;10.50;99.90;;;;;;5237031;28;22270;-49
2022/10/08 02:11:44;;;;;;;23.17;5.73;;;10.40;99.90;;;;;;5253517;28;20440;-49
2022/10/08 02:14:15;;;;;;;9.90;5.70;;;10.40;99.90;;;;;;5241789;28;20457;-49
2022/10/08 02:16:53;;;;;;;12.00;6.50;;;10.40;99.90;;;;;;5245502;28;20185;-49
2022/10/08 02:19:31;;;;;;;7.97;5.27;;;10.40;99.90;;;;;;5265563;28;20272;-47
2022/10/08 02:22:04;;;;;;;10.33;6.27;;;10.40;99.90;;;;;;5244750;28;20440;-50
2022/10/08 02:25:01;;;;;;;7.33;4.90;;;10.40;99.90;;;;;;5260924;28;20443;-49
2022/10/08 02:27:50;;;;;;;7.53;5.00;;;10.40;99.90;;;;;;5262723;28;20433;-49
2022/10/08 02:30:22;;;;;;;6.63;5.27;;;10.40;99.90;;;;;;5242173;28;20463;-49
2022/10/08 02:32:59;;;;;;;11.83;6.03;;;10.40;99.90;;;;;;5264036;28;20548;-49
2022/10/08 02:35:59;;;;;;;8.80;6.20;;;10.50;99.90;;;;;;5243996;28;20447;-48
2022/10/08 02:38:45;;;;;;;9.07;5.00;;;10.50;99.90;;;;;;5237032;28;20445;-49
2022/10/08 02:41:19;;;;;;;7.73;5.20;;;10.50;99.90;;;;;;5264055;28;20443;-49
2022/10/08 02:43:52;;;;;;;6.00;5.40;;;10.60;99.90;;;;;;5260545;28;20487;-49
2022/10/08 02:46:27;;;;;;;9.63;6.23;;;10.60;99.90;;;;;;5266369;28;20436;-49
2022/10/08 02:49:06;;;;;;;11.17;5.20;;;10.60;99.90;;;;;;5268421;28;20565;-48
2022/10/08 02:51:40;;;;;;;9.50;5.60;;;10.60;99.90;;;;;;5265354;28;20431;-49
2022/10/08 02:54:11;;;;;;;7.60;5.50;;;10.50;99.90;;;;;;5248676;28;20466;-47
2022/10/08 02:56:55;;;;;;;6.53;5.10;;;10.60;99.90;;;;;;5261964;28;20522;-49
2022/10/08 02:59:26;;;;;;;6.93;5.20;;;10.50;99.90;;;;;;5242103;28;20450;-48
2022/10/08 03:01:59;;;;;;;5.60;4.90;;;10.40;99.90;;;;;;5262837;28;20435;-48
2022/10/08 03:04:43;;;;;;;5.40;4.90;;;10.40;99.90;;;;;;5258563;28;20173;-48
2022/10/08 03:07:14;;;;;;;9.93;4.90;;;10.40;99.90;;;;;;5256702;28;20538;-48
2022/10/08 03:09:47;;;;;;;8.63;5.67;;;10.40;99.90;;;;;;5258317;28;20986;-49
2022/10/08 03:12:18;;;;;;;6.60;5.43;;;10.40;99.90;;;;;;5254899;28;21028;-49
2022/10/08 03:14:51;;;;;;;6.20;4.27;;;10.40;99.90;;;;;;5257609;28;20439;-49
2022/10/08 03:17:26;;;;;;;5.10;4.60;;;10.30;99.90;;;;;;5265784;28;20440;-50
2022/10/08 03:19:59;;;;;;;7.63;5.23;;;10.30;99.90;;;;;;5263366;28;20840;-47
2022/10/08 03:22:32;;;;;;;8.90;6.00;;;10.20;99.90;;;;;;5266473;28;20485;-50
2022/10/08 03:25:03;;;;;;;6.37;4.70;;;10.20;99.90;;;;;;5250023;28;20962;-50
2022/10/08 03:27:34;;;;;;;4.93;4.43;;;10.20;99.90;;;;;;5250050;28;20445;-49
2022/10/08 03:30:05;;;;;;;11.77;4.70;;;10.20;99.90;;;;;;5262884;28;20462;-49
2022/10/08 03:32:35;;;;;;;9.23;5.10;;;10.20;99.90;;;;;;5255297;28;20513;-50
2022/10/08 03:35:06;;;;;;;5.70;5.20;;;10.30;99.90;;;;;;5242816;28;20958;-49
2022/10/08 03:37:37;;;;;;;7.20;5.17;;;10.30;99.90;;;;;;5248073;28;20680;-49
2022/10/08 03:40:08;;;;;;;5.60;4.90;;;10.30;99.90;;;;;;5240674;28;20186;-48
2022/10/08 03:42:39;;;;;;;11.40;6.17;;;10.30;99.90;;;;;;5280142;22;20228;-48
2022/10/08 03:45:09;;;;;;;4.50;4.10;;;10.30;99.90;;;;;;5254148;28;20447;-48
2022/10/08 03:47:40;;;;;;;5.87;5.03;;;10.30;99.90;;;;;;5275000;28;20548;-49
2022/10/08 03:50:10;;;;;;;8.70;6.40;;;10.30;99.90;;;;;;5279744;28;20220;-49
2022/10/08 03:52:41;;;;;;;9.90;4.60;;;10.30;99.90;;;;;;5262100;28;20210;-47
2022/10/08 03:55:11;;;;;;;5.50;4.40;;;10.30;99.90;;;;;;5269036;28;20264;-52
2022/10/08 03:57:42;;;;;;;7.23;4.80;;;10.30;99.90;;;;;;5269251;28;20169;-49
2022/10/08 04:00:13;;;;;;;4.87;4.47;;;10.40;99.90;;;;;;5274814;27;20177;-49
2022/10/08 04:02:48;;;;;;;6.17;4.60;;;10.40;99.90;;;;;;5264872;28;20292;-47
2022/10/08 04:05:18;;;;;;;6.67;4.60;;;10.40;99.90;;;;;;5285769;27;20287;-47
2022/10/08 04:07:49;;;;;;;7.23;4.70;;;10.40;99.90;;;;;;5273309;28;20913;-48
2022/10/08 04:10:19;;;;;;;5.77;5.00;;;10.50;99.90;;;;;;5274939;27;20572;-48
2022/10/08 04:12:50;;;;;;;5.07;4.60;;;10.30;99.90;;;;;;5277885;27;20197;-48
2022/10/08 04:15:21;;;;;;;4.43;4.10;;;10.50;99.90;;;;;;5265144;28;20177;-48
2022/10/08 04:17:51;;;;;;;4.20;3.83;;;10.50;99.90;;;;;;5289231;28;20169;-47
2022/10/08 04:20:22;;;;;;;10.83;4.80;;;10.50;99.90;;;;;;5289968;27;20189;-48
2022/10/08 04:22:52;;;;;;;10.73;5.33;;;10.50;99.90;;;;;;5279605;28;20296;-48
2022/10/08 04:25:23;;;;;;;5.33;4.40;;;10.50;99.90;;;;;;5280459;28;20692;-47
2022/10/08 04:27:53;;;;;;;3.73;3.43;;;10.40;99.90;;;;;;5273589;28;20548;-47
2022/10/08 04:30:24;;;;;;;6.10;4.47;;;10.30;99.90;;;;;;5287525;27;20219;-49
2022/10/08 04:32:55;;;;;;;7.60;5.40;;;10.30;99.90;;;;;;5287496;27;20727;-50
2022/10/08 04:35:26;;;;;;;5.03;4.63;;;10.30;99.90;;;;;;5273014;28;20173;-48
2022/10/08 04:37:56;;;;;;;14.10;5.03;;;10.20;99.90;;;;;;5268249;28;20447;-48
2022/10/08 04:40:27;;;;;;;10.10;5.13;;;10.20;99.90;;;;;;5254602;28;20189;-48
2022/10/08 04:42:57;;;;;;;5.87;4.60;;;10.20;99.90;;;;;;5266714;28;20209;-47
2022/10/08 04:45:28;;;;;;;5.30;4.23;;;10.20;99.90;;;;;;5272571;28;20294;-47
2022/10/08 04:47:58;;;;;;;3.60;3.40;;;10.10;99.90;;;;;;5280866;28;20178;-47
2022/10/08 04:50:29;;;;;;;7.40;4.43;;;10.10;99.90;;;;;;5280814;28;20205;-49
2022/10/08 04:52:59;;;;;;;7.10;4.80;;;10.00;99.90;;;;;;5271370;28;20200;-47
2022/10/08 04:55:30;;;;;;;13.07;5.00;;;10.00;99.90;;;;;;5271099;28;20177;-48
2022/10/08 04:58:01;;;;;;;6.70;4.30;;;9.90;99.90;;;;;;5285069;28;20664;-47
2022/10/08 05:00:33;;;;;;;6.60;4.87;;;9.80;99.90;;;;;;5284236;27;20185;-48
2022/10/08 05:03:04;;;;;;;8.67;6.17;;;9.80;99.90;;;;;;5277211;27;20208;-50
2022/10/08 05:05:40;;;;;;;7.20;4.50;;;9.80;99.90;;;;;;5277922;28;20451;-49
2022/10/08 05:08:11;;;;;;;8.90;5.00;;;9.70;99.90;;;;;;5292339;28;20705;-49
2022/10/08 05:10:48;;;;;;;8.73;5.80;;;9.70;99.90;;;;;;5268087;28;20462;-53
2022/10/08 05:13:18;;;;;;;7.33;5.43;;;9.60;99.90;;;;;;5285890;27;20479;-48
2022/10/08 05:15:49;;;;;;;14.83;5.90;;;9.60;99.90;;;;;;5279719;28;20461;-48
2022/10/08 05:18:20;;;;;;;4.97;4.47;;;9.60;99.90;;;;;;5290841;27;20256;-49
2022/10/08 05:20:50;;;;;;;6.40;4.53;;;9.50;99.90;;;;;;5259206;28;20180;-49
2022/10/08 05:23:21;;;;;;;4.60;4.20;;;9.50;99.90;;;;;;5287662;28;20208;-48
2022/10/08 05:25:51;;;;;;;6.33;4.83;;;9.50;99.90;;;;;;5285177;28;20477;-49
2022/10/08 05:28:22;;;;;;;8.57;5.33;;;9.50;99.90;;;;;;5284886;28;20177;-51
2022/10/08 05:30:58;;;;;;;11.43;5.10;;;9.50;99.90;;;;;;5266955;28;20317;-48
2022/10/08 05:33:29;;;;;;;8.47;5.00;;;9.50;99.90;;;;;;5286817;28;22095;-47
2022/10/08 05:36:03;;;;;;;5.53;4.93;;;9.60;99.90;;;;;;5267506;28;20450;-48
2022/10/08 05:38:34;;;;;;;5.67;4.87;;;9.60;99.90;;;;;;5271220;27;20264;-48
2022/10/08 05:41:20;;;;;;;4.00;3.60;;;9.70;99.90;;;;;;5287126;28;20909;-47
2022/10/08 05:43:52;;;;;;;6.13;4.90;;;9.80;99.90;;;;;;5283862;28;20558;-51
2022/10/08 05:46:25;;;;;;;4.47;4.17;;;9.70;99.90;;;;;;5278624;28;20906;-49
2022/10/08 05:48:58;;;;;;;5.90;4.30;;;9.80;99.90;;;;;;5286924;28;20459;-50
2022/10/08 05:51:29;;;;;;;6.50;4.53;;;9.80;99.90;;;;;;5281868;28;20431;-48
2022/10/08 05:54:00;;;;;;;10.97;3.90;;;9.80;99.90;;;;;;5266188;28;20467;-49
2022/10/08 05:56:30;;;;;;;6.47;4.90;;;9.80;99.90;;;;;;5259151;27;20431;-49
2022/10/08 05:59:01;;;;;;;3.87;3.57;;;9.90;99.90;;;;;;5271715;28;20177;-47
2022/10/08 06:01:32;;;;;;;3.97;3.67;;;9.90;99.90;;;;;;5283000;27;20230;-49
2022/10/08 06:04:05;;;;;;;5.87;3.80;;;9.90;99.90;;;;;;5269847;28;24897;-48
2022/10/08 06:06:37;;;;;;;8.90;4.87;;;10.00;99.90;;;;;;5282736;28;20446;-47
2022/10/08 06:09:11;;;;;;;5.60;5.10;;;10.00;99.90;;;;;;5265996;28;20467;-49
2022/10/08 06:11:42;;;;;;;5.63;4.43;;;10.00;99.90;;;;;;5284893;28;20434;-48
2022/10/08 06:14:19;;;;;;;10.50;3.93;;;10.10;99.90;;;;;;5283781;28;20457;-48
2022/10/08 06:16:49;;;;;;;6.40;4.30;;;10.10;99.90;;;;;;5277348;28;20181;-48
2022/10/08 06:19:20;;;;;;;7.10;5.03;;;10.20;99.90;;;;;;5279714;28;20449;-48
2022/10/08 06:21:50;;;;;;;3.80;3.50;;;10.30;99.90;;;;;;5264661;28;20181;-47
2022/10/08 06:24:21;;;;;;;10.97;4.00;;;10.30;99.90;;;;;;5266035;28;20215;-48
2022/10/08 06:26:52;;;;;;;4.90;3.77;;;10.50;99.90;;;;;;5264002;28;20180;-48
2022/10/08 06:29:22;;;;;;;4.77;3.90;;;10.60;99.90;;;;;;5284293;28;20212;-48
2022/10/08 06:31:53;;;;;;;3.13;3.03;;;10.70;99.90;;;;;;5284224;28;20173;-47
2022/10/08 06:34:24;;;;;;;5.90;4.60;;;10.90;99.90;;;;;;5264770;28;20193;-48
2022/10/08 06:36:54;;;;;;;5.00;4.50;;;11.10;99.90;;;;;;5264484;28;20181;-48
2022/10/08 06:39:25;;;;;;;8.20;4.13;;;11.20;99.90;;;;;;5265240;28;20184;-48
2022/10/08 06:41:55;;;;;;;6.13;5.10;;;11.30;99.90;;;;;;5267799;28;20188;-49
2022/10/08 06:44:27;;;;;;;11.90;4.03;;;11.40;99.90;;;;;;5263626;28;20316;-48
2022/10/08 06:46:58;;;;;;;5.33;4.77;;;11.70;99.90;;;;;;5259470;28;20876;-50
2022/10/08 06:49:28;;;;;;;9.73;4.03;;;12.20;99.90;;;;;;5264430;28;20208;-47
2022/10/08 06:51:59;;;;;;;5.10;4.23;;;12.50;99.90;;;;;;5277911;28;20639;-46
2022/10/08 06:54:29;;;;;;;4.30;3.97;;;12.70;99.90;;;;;;5272250;28;20201;-47
2022/10/08 06:57:00;;;;;;;5.07;4.20;;;13.50;99.90;;;;;;5283007;28;20627;-49
2022/10/08 06:59:30;;;;;;;5.50;4.27;;;15.00;99.90;;;;;;5278035;28;20185;-49
2022/10/08 07:02:01;;;;;;;5.10;3.33;;;16.80;99.90;;;;;;5280815;28;20201;-51
2022/10/08 07:04:31;;;;;;;8.80;3.77;;;18.40;99.90;;;;;;5281517;28;20212;-51
2022/10/08 07:07:02;;;;;;;4.60;2.87;;;20.30;93.40;;;;;;5260521;28;20189;-50
2022/10/08 07:09:33;;;;;;;3.30;3.03;;;21.60;81.20;;;;;;5281901;28;20213;-51
2022/10/08 07:12:03;;;;;;;5.87;3.43;;;21.60;68.70;;;;;;5280778;28;20197;-50
2022/10/08 07:14:34;;;;;;;5.83;3.43;;;20.10;71.60;;;;;;5285329;28;20205;-51
2022/10/08 07:17:04;;;;;;;8.20;3.50;;;18.60;78.30;;;;;;5264304;28;20629;-50
2022/10/08 07:19:35;;;;;;;4.90;3.50;;;18.30;84.90;;;;;;5275848;28;20197;-51
2022/10/08 07:22:06;;;;;;;3.70;3.40;;;18.40;83.00;;;;;;5281850;28;20181;-51
2022/10/08 07:24:36;;;;;;;15.73;4.70;;;17.80;86.80;;;;;;5278381;28;20200;-52
2022/10/08 07:27:07;;;;;;;7.80;3.70;;;18.70;88.30;;;;;;5264564;28;20185;-50
2022/10/08 07:29:37;;;;;;;4.40;2.90;;;20.60;79.60;;;;;;5267634;28;20212;-52
2022/10/08 07:32:08;;;;;;;4.37;2.43;;;22.00;71.50;;;;;;5266178;28;20732;-51
2022/10/08 07:34:39;;;;;;;4.80;3.30;;;22.60;66.40;;;;;;5269881;28;20212;-52
2022/10/08 07:37:09;;;;;;;6.20;3.07;;;21.70;65.50;;;;;;5267439;28;20223;-50
2022/10/08 07:39:40;;;;;;;9.23;4.47;;;20.30;67.70;;;;;;5264662;28;20205;-53
2022/10/08 07:42:10;;;;;;;5.23;3.60;;;18.80;72.20;;;;;;5265106;28;20185;-52
2022/10/08 07:44:41;;;;;;;8.20;3.73;;;17.70;78.10;;;;;;5270822;27;20220;-50
2022/10/08 07:47:11;;;;;;;7.17;2.80;;;16.80;84.50;;;;;;5265120;28;20184;-50
2022/10/08 07:49:42;;;;;;;3.23;2.93;;;16.10;91.10;;;;;;5282325;28;20225;-51
2022/10/08 07:52:13;;;;;;;7.37;3.57;;;15.60;95.20;;;;;;5287417;27;20185;-51
2022/10/08 07:54:44;;;;;;;7.70;4.13;;;15.20;99.00;;;;;;5278778;28;20201;-51
2022/10/08 07:57:14;;;;;;;15.27;3.80;;;14.80;99.90;;;;;;5296339;27;20485;-53
2022/10/08 07:59:45;;;;;;;7.90;2.83;;;14.60;99.90;;;;;;5285451;28;20441;-50
2022/10/08 08:02:15;;;;;;;6.47;3.00;;;14.40;99.90;;;;;;5286428;27;20177;-51
2022/10/08 08:04:46;;;;;;;3.50;3.20;;;14.40;99.90;;;;;;5279353;27;20189;-51
2022/10/08 08:07:17;;;;;;;6.83;3.67;;;14.50;99.90;;;;;;5283636;27;20695;-52
2022/10/08 08:09:47;;;;;;;19.73;3.20;;;14.50;99.90;;;;;;5272373;28;20224;-53
2022/10/08 08:12:18;;;;;;;7.20;3.73;;;14.50;99.90;;;;;;5284811;28;20182;-52
2022/10/08 08:14:48;;;;;;;6.13;3.33;;;14.50;99.90;;;;;;5265815;28;20251;-51
2022/10/08 08:17:19;;;;;;;4.30;3.50;;;14.50;99.90;;;;;;5284265;27;20719;-52
2022/10/08 08:19:50;;;;;;;4.53;2.70;;;14.50;99.90;;;;;;5274737;28;20650;-53
2022/10/08 08:22:20;;;;;;;4.63;2.73;;;14.50;99.90;;;;;;5288675;28;20631;-52
2022/10/08 08:24:51;;;;;;;4.10;2.77;;;14.60;99.90;;;;;;5287034;27;20602;-51
2022/10/08 08:27:21;;;;;;;10.33;3.33;;;14.70;99.90;;;;;;5271083;28;20207;-51
2022/10/08 08:29:52;;;;;;;7.70;2.27;;;14.80;99.90;;;;;;5253370;27;20304;-51
2022/10/08 08:32:22;;;;;;;7.00;2.80;;;14.90;99.90;;;;;;5284341;27;20187;-52
2022/10/08 08:34:53;;;;;;;14.70;2.73;;;14.90;99.90;;;;;;5264529;28;20189;-51
2022/10/08 08:37:23;;;;;;;13.50;3.07;;;15.00;99.90;;;;;;5269547;27;20237;-52
2022/10/08 08:39:54;;;;;;;9.87;3.37;;;15.10;99.90;;;;;;5266515;28;20224;-52
2022/10/08 08:42:52;;;;;;;15.30;3.60;;;15.20;99.90;;;;;;5285289;27;20643;-51
2022/10/08 08:45:29;;;;;;;8.60;2.17;;;15.20;99.90;;;;;;5264379;28;21482;-52
2022/10/08 08:48:01;;;;;;;2.90;2.20;;;15.30;99.90;;;;;;5284066;28;20449;-52
2022/10/08 08:50:37;;;;;;;12.43;2.90;;;15.40;99.90;;;;;;5285598;28;20461;-51
2022/10/08 08:53:09;;;;;;;18.33;3.20;;;15.50;99.90;;;;;;5264166;28;20455;-51
2022/10/08 08:55:45;;;;;;;15.30;3.30;;;15.60;99.90;;;;;;5282184;27;20521;-53
2022/10/08 08:58:34;;;;;;;10.67;2.90;;;15.60;99.90;;;;;;5286794;28;20793;-51
2022/10/08 09:01:07;;;;;;;15.60;3.13;;;15.60;99.90;;;;;;5259566;28;20430;-51
2022/10/08 09:03:53;;;;;;;8.80;3.07;;;15.50;99.90;;;;;;5257834;28;20502;-51
2022/10/08 09:06:24;;;;;;;7.10;3.10;;;15.60;99.90;;;;;;5267426;27;20431;-52
2022/10/08 09:08:58;;;;;;;13.97;4.23;;;15.60;99.90;;;;;;5280545;28;20459;-50
2022/10/08 09:11:29;;;;;;;9.63;3.47;;;15.60;99.90;;;;;;5275086;28;20522;-50
2022/10/08 09:14:14;;;;;;;6.97;3.07;;;15.80;99.90;;;;;;5282887;27;20476;-51
2022/10/08 09:16:45;;;;;;;8.17;4.03;;;15.90;99.90;;;;;;5285627;28;20481;-51
2022/10/08 09:19:15;;;;;;;10.73;3.17;;;15.80;99.90;;;;;;5268954;28;20813;-53
2022/10/08 09:21:46;;;;;;;7.50;3.33;;;16.00;99.90;;;;;;5286069;27;20188;-52
2022/10/08 09:24:18;;;;;;;11.20;3.37;;;16.30;99.90;;;;;;5284655;27;20212;-50
2022/10/08 09:26:50;;;;;;;5.63;3.73;;;16.60;99.90;;;;;;5282325;27;20201;-52
2022/10/08 09:29:32;;;;;;;9.93;3.10;;;16.70;99.90;;;;;;5283641;28;20610;-51
2022/10/08 09:32:03;;;;;;;8.90;3.90;;;16.90;99.90;;;;;;5266527;27;20430;-51
2022/10/08 09:34:34;;;;;;;23.83;3.40;;;17.20;99.90;;;;;;5257859;28;20556;-51
2022/10/08 09:37:11;;;;;;;11.60;4.40;;;17.30;99.90;;;;;;5280983;28;20646;-51
2022/10/08 09:40:06;;;;;;;10.43;3.70;;;17.60;99.90;;;;;;5281616;27;20182;-52
2022/10/08 09:42:36;;;;;;;10.50;3.80;;;17.60;99.90;;;;;;5264651;28;20945;-48
2022/10/08 09:45:31;;;;;;;6.93;3.63;;;17.50;99.70;;;;;;5281389;28;20496;-51
2022/10/08 09:48:27;;;;;;;11.20;4.73;;;17.40;99.80;;;;;;5270742;28;20578;-51
2022/10/08 09:51:16;;;;;;;17.77;6.23;;;17.30;99.90;;;;;;5268321;28;20434;-47
2022/10/08 09:53:49;;;;;;;6.83;3.60;;;17.30;99.90;;;;;;5287292;28;21049;-48
2022/10/08 09:56:26;;;;;;;10.00;3.30;;;17.40;99.90;;;;;;5277901;27;20442;-48
2022/10/08 09:59:00;;;;;;;6.13;3.10;;;17.30;99.80;;;;;;5263137;28;20426;-47
2022/10/08 10:01:31;;;;;;;12.37;3.87;;;17.40;99.90;;;;;;5260318;28;20945;-47
2022/10/08 10:04:03;;;;;;;12.13;4.23;;;17.40;99.60;;;;;;5260943;28;20458;-51
2022/10/08 10:06:36;;;;;;;9.37;3.20;;;17.30;99.90;;;;;;5266964;28;20428;-48
2022/10/08 10:09:10;;;;;;;8.27;2.97;;;17.20;99.90;;;;;;5282766;27;20458;-49
2022/10/08 10:11:47;;;;;;;11.63;3.37;;;17.30;99.90;;;;;;5288282;27;20426;-49
2022/10/08 10:14:25;;;;;;;7.70;3.47;;;17.10;99.90;;;;;;5276159;28;20447;-48
2022/10/08 10:17:11;;;;;;;13.47;3.47;;;17.10;99.90;;;;;;5279041;28;20929;-52
2022/10/08 10:19:52;;;;;;;8.43;3.77;;;17.40;99.90;;;;;;5276170;28;20927;-49
2022/10/08 10:22:36;;;;;;;9.37;3.20;;;17.60;99.50;;;;;;5273824;28;20782;-49
2022/10/08 10:25:23;;;;;;;10.40;2.80;;;17.70;98.60;;;;;;5277329;28;20915;-51
2022/10/08 10:27:58;;;;;;;9.93;3.50;;;17.80;98.10;;;;;;5266979;28;20784;-47
2022/10/08 10:30:51;;;;;;;5.77;3.07;;;17.70;98.30;;;;;;5284380;28;20470;-48
2022/10/08 10:33:27;;;;;;;5.47;2.80;;;17.40;98.40;;;;;;5275751;28;20776;-50
2022/10/08 10:36:03;;;;;;;15.63;3.83;;;17.30;99.10;;;;;;5286981;28;20634;-49
2022/10/08 10:38:44;;;;;;;10.53;3.10;;;17.30;99.30;;;;;;5267088;28;20794;-47
2022/10/08 10:41:32;;;;;;;7.70;2.77;;;17.10;99.60;;;;;;5264819;28;20453;-49
2022/10/08 10:44:08;;;;;;;11.43;2.90;;;17.00;99.90;;;;;;5273462;28;20463;-51
2022/10/08 10:46:43;;;;;;;4.53;3.37;;;17.10;99.50;;;;;;5276732;28;20561;-49
2022/10/08 10:49:18;;;;;;;5.47;3.00;;;17.30;99.40;;;;;;5281645;28;20561;-48
2022/10/08 10:52:03;;;;;;;17.17;4.97;;;17.60;98.80;;;;;;5284295;28;20434;-50
2022/10/08 10:55:17;;;;;;;3.90;3.10;;;17.60;98.00;;;;;;5260568;28;20500;-51
2022/10/08 10:58:03;;;;;;;10.73;6.07;;;17.50;97.80;;;;;;5279561;28;20467;-51
2022/10/08 11:00:34;;;;;;;5.43;3.63;;;17.30;98.00;;;;;;5285745;28;21301;-49
2022/10/08 11:03:36;;;;;;;16.90;8.17;;;17.10;98.50;;;;;;5281608;27;20541;-48
2022/10/08 11:06:10;;;;;;;6.47;3.70;;;16.90;99.10;;;;;;5283767;27;20249;-49
2022/10/08 11:08:46;;;;;;;5.33;3.60;;;16.70;99.50;;;;;;5288139;27;20526;-47
2022/10/08 11:11:20;;;;;;;9.00;3.97;;;16.50;99.90;;;;;;5264738;28;20442;-51
2022/10/08 11:14:00;;;;;;;10.00;2.93;;;16.20;99.90;;;;;;5291082;28;21004;-50
2022/10/08 11:17:15;;;;;;;7.53;3.23;;;16.00;99.90;;;;;;5283349;27;20427;-48
2022/10/08 11:20:11;;;;;;;6.77;3.43;;;16.00;99.90;;;;;;5238553;28;20431;-50
2022/10/08 11:23:06;;;;;;;5.80;3.40;;;16.00;99.90;;;;;;5266068;28;20450;-48
2022/10/08 11:25:43;;;;;;;5.67;2.57;;;15.90;99.90;;;;;;5282099;27;20953;-49
2022/10/08 11:28:32;;;;;;;9.27;2.87;;;15.80;99.90;;;;;;5287723;27;20449;-50
2022/10/08 11:31:06;;;;;;;4.23;2.50;;;15.70;99.90;;;;;;5279463;27;20438;-49
2022/10/08 11:33:37;;;;;;;4.97;3.03;;;15.70;99.90;;;;;;5282149;27;20547;-52
2022/10/08 11:36:39;;;;;;;15.00;5.50;;;15.60;99.90;;;;;;5278762;28;20438;-49
2022/10/08 11:39:23;;;;;;;14.03;5.50;;;15.50;99.90;;;;;;5257523;28;20431;-49
2022/10/08 11:41:56;;;;;;;8.27;3.70;;;15.40;99.90;;;;;;5264703;28;20438;-50
2022/10/08 11:44:29;;;;;;;21.37;5.33;;;15.50;99.90;;;;;;5280192;28;21010;-49
2022/10/08 11:47:38;;;;;;;8.43;4.00;;;15.50;99.90;;;;;;5285601;28;20617;-49
2022/10/08 11:50:31;;;;;;;7.50;3.87;;;15.50;99.90;;;;;;5289062;28;20494;-48
2022/10/08 11:53:22;;;;;;;16.47;5.80;;;15.50;99.90;;;;;;5284126;27;20526;-50
2022/10/08 11:55:56;;;;;;;11.37;5.27;;;15.50;99.90;;;;;;5277253;28;20432;-49
2022/10/08 11:58:30;;;;;;;11.40;4.57;;;15.50;99.90;;;;;;5281753;27;20488;-50
2022/10/08 12:01:06;;;;;;;8.70;3.73;;;15.60;99.90;;;;;;5264223;28;20427;-49
2022/10/08 12:03:40;;;;;;;13.37;3.73;;;15.70;99.90;;;;;;5266180;27;20450;-50
2022/10/08 12:06:25;;;;;;;6.43;4.37;;;15.90;99.90;;;;;;5265594;28;20949;-52
2022/10/08 12:08:58;;;;;;;34.17;10.90;;;16.00;99.90;;;;;;5266589;28;20545;-52
2022/10/08 12:11:28;;;;;;;8.37;4.87;;;16.10;99.90;;;;;;5266307;28;20427;-48
2022/10/08 12:14:14;;;;;;;6.50;4.50;;;15.90;99.90;;;;;;5266951;28;20451;-50
2022/10/08 12:16:47;;;;;;;9.50;5.27;;;15.70;99.90;;;;;;5288089;27;20712;-51
2022/10/08 12:19:33;;;;;;;7.97;4.33;;;15.80;99.90;;;;;;5265348;28;21005;-52
2022/10/08 12:22:24;;;;;;;11.13;5.00;;;16.00;99.90;;;;;;5283633;28;20435;-51
2022/10/08 12:24:58;;;;;;;6.27;5.67;;;16.10;99.90;;;;;;5282235;28;20435;-48
2022/10/08 12:27:31;;;;;;;15.13;5.93;;;16.20;99.90;;;;;;5263561;28;20433;-53
2022/10/08 12:30:15;;;;;;;28.07;11.30;;;16.30;99.90;;;;;;5268885;27;20553;-52
2022/10/08 12:32:49;;;;;;;17.43;6.70;;;16.40;99.90;;;;;;5281564;27;20999;-53
2022/10/08 12:35:27;;;;;;;7.93;4.83;;;16.40;99.90;;;;;;5273115;27;20930;-52
2022/10/08 12:38:21;;;;;;;12.50;4.77;;;16.40;99.90;;;;;;5274698;27;20541;-50
2022/10/08 12:41:06;;;;;;;11.60;3.63;;;16.50;99.90;;;;;;5266651;28;20443;-50
2022/10/08 12:43:52;;;;;;;9.83;3.77;;;16.60;99.90;;;;;;5266874;28;20519;-49
2022/10/08 12:46:51;;;;;;;16.33;7.53;;;16.60;99.90;;;;;;5267913;28;20454;-50
2022/10/08 12:49:21;;;;;;;8.63;4.87;;;16.60;99.90;;;;;;5288641;28;20799;-49
2022/10/08 12:52:13;;;;;;;9.17;5.07;;;16.40;99.90;;;;;;5285306;27;20427;-50
2022/10/08 12:54:57;;;;;;;5.30;3.50;;;16.20;99.90;;;;;;5285990;27;20214;-47
2022/10/08 12:57:35;;;;;;;11.93;7.57;;;16.00;99.90;;;;;;5291233;27;20433;-50
2022/10/08 13:00:30;;;;;;;18.97;9.87;;;15.90;99.90;;;;;;5277601;27;20530;-51
2022/10/08 13:03:15;;;;;;;12.03;4.43;;;15.90;99.90;;;;;;5258796;27;20461;-49
2022/10/08 13:05:46;;;;;;;4.10;2.50;;;16.10;99.90;;;;;;5287431;27;20484;-49
2022/10/08 13:08:26;;;;;;;4.60;3.43;;;16.20;99.90;;;;;;5294208;27;20949;-49
2022/10/08 13:10:59;;;;;;;10.57;3.70;;;16.20;99.90;;;;;;5291058;27;20474;-49
2022/10/08 13:13:38;;;;;;;11.80;4.07;;;16.00;99.90;;;;;;5292550;27;20484;-49
2022/10/08 13:16:15;;;;;;;14.00;7.17;;;15.80;99.90;;;;;;5284295;27;20423;-50
2022/10/08 13:18:52;;;;;;;17.43;5.97;;;15.70;99.90;;;;;;5283060;27;20513;-50
2022/10/08 13:21:33;;;;;;;12.40;5.33;;;15.60;99.90;;;;;;5286376;28;20419;-50
2022/10/08 13:24:12;;;;;;;7.27;3.63;;;15.40;99.90;;;;;;5283921;27;20470;-49
2022/10/08 13:26:48;;;;;;;9.03;4.10;;;15.30;99.90;;;;;;5275927;28;20489;-48
2022/10/08 13:29:27;;;;;;;9.53;3.50;;;15.20;99.90;;;;;;5268565;28;20462;-49
2022/10/08 13:32:04;;;;;;;6.07;3.20;;;15.00;99.90;;;;;;5273796;28;20802;-48